Hermanos Mora Martin — EA7601 — position and weather

sailwx.info

Track history (hours):
 
Tides and Currents Weather Stations Pressure Air Temp Water Temp Dewpoint Dewpoint Depression Visibility Wind Speed Wind Dir Waves Ship Positions

Hermanos Mora Martin

Last reported at 2017-Nov-29 11:31 UTC. Time now 2017-Dec-14 00:43 UTC.
Position N 36°55' W 008°10'.
Warning: this ship's position is 14 days out of date.

Length 23 m.

Type: Fishing. MMSI: 224171260.

Date/timePositionNaut miles runAvg speedWind from/ knotsBaromVisibWave heightAir tempDewpointWater temp
2017-Nov-29 11:31N 36°55' W 008°10'010.3
2017-Nov-29 11:30N 36°55' W 008°10'510.1
2017-Nov-29 11:00N 36°56' W 008°16'510.2
2017-Nov-29 10:30N 36°57' W 008°23'510.0
2017-Nov-29 10:00N 36°58' W 008°29'510.0
2017-Nov-29 09:30N 36°59' W 008°35'5 9.8
2017-Nov-29 09:00N 36°59' W 008°41'5 9.9
2017-Nov-29 08:30N 36°59' W 008°47'48 5.3
2017-Nov-28 23:29N 37°43' W 009°12'53 1.2
2017-Nov-27 04:14N 36°57' W 008°38'2 9.8
2017-Nov-27 04:00N 36°57' W 008°35'  
2017-Nov-24 13:37N 36°49' W 007°39'0 2.0
2017-Nov-24 13:29N 36°49' W 007°39'  
2017-Nov-20 00:31N 37°36' W 009°20'5 0.8
2017-Nov-19 18:54N 37°32' W 009°18'1 2.6
2017-Nov-19 18:30N 37°32' W 009°18'1 2.6
2017-Nov-19 18:01N 37°34' W 009°19'1 2.6
2017-Nov-19 17:31N 37°35' W 009°20'1 2.6
2017-Nov-19 17:01N 37°36' W 009°21'1 2.5
2017-Nov-19 16:31N 37°37' W 009°22'1 2.4
2017-Nov-19 15:59N 37°38' W 009°23'2 3.4
2017-Nov-19 15:31N 37°38' W 009°25'0 0.9
2017-Nov-19 15:01N 37°38' W 009°24'0 0.7
2017-Nov-19 14:31N 37°38' W 009°24'1 2.5
2017-Nov-19 13:55N 37°37' W 009°22'1 2.6
2017-Nov-19 13:30N 37°37' W 009°21'  
Track history (hours):
 
Tides and Currents Weather Stations Pressure Air Temp Water Temp Dewpoint Dewpoint Depression Visibility Wind Speed Wind Dir Waves Ship Positions

Hermanos Mora Martin

Last reported at 2017-Nov-29 11:31 UTC. Time now 2017-Dec-14 00:43 UTC.
Position N 36°55' W 008°10'.
Warning: this ship's position is 14 days out of date.

Length 23 m.

Type: Fishing. MMSI: 224171260.

Date/timePositionNaut miles runAvg speedWind from/ knotsBaromVisibWave heightAir tempDewpointWater temp
2017-Nov-29 11:31N 36°55' W 008°10'010.3
2017-Nov-29 11:30N 36°55' W 008°10'510.1
2017-Nov-29 11:00N 36°56' W 008°16'510.2
2017-Nov-29 10:30N 36°57' W 008°23'510.0
2017-Nov-29 10:00N 36°58' W 008°29'510.0
2017-Nov-29 09:30N 36°59' W 008°35'5 9.8
2017-Nov-29 09:00N 36°59' W 008°41'5 9.9
2017-Nov-29 08:30N 36°59' W 008°47'48 5.3
2017-Nov-28 23:29N 37°43' W 009°12'53 1.2
2017-Nov-27 04:14N 36°57' W 008°38'2 9.8
2017-Nov-27 04:00N 36°57' W 008°35'  
2017-Nov-24 13:37N 36°49' W 007°39'0 2.0
2017-Nov-24 13:29N 36°49' W 007°39'  
2017-Nov-20 00:31N 37°36' W 009°20'5 0.8
2017-Nov-19 18:54N 37°32' W 009°18'1 2.6
2017-Nov-19 18:30N 37°32' W 009°18'1 2.6
2017-Nov-19 18:01N 37°34' W 009°19'1 2.6
2017-Nov-19 17:31N 37°35' W 009°20'1 2.6
2017-Nov-19 17:01N 37°36' W 009°21'1 2.5
2017-Nov-19 16:31N 37°37' W 009°22'1 2.4
2017-Nov-19 15:59N 37°38' W 009°23'2 3.4
2017-Nov-19 15:31N 37°38' W 009°25'0 0.9
2017-Nov-19 15:01N 37°38' W 009°24'0 0.7
2017-Nov-19 14:31N 37°38' W 009°24'1 2.5
2017-Nov-19 13:55N 37°37' W 009°22'1 2.6
2017-Nov-19 13:30N 37°37' W 009°21'  

Dump ship's entire track history